Terminal Aerodrome Forecast
Issued by NWS

Home | Current Version | Previous Version | Text Only | Print | Product List | Glossary On
Versions: 1 2 3 4 5 6 7 8 9 10 11 12 13 14 15 16
117
FTAK31 PAJN 211922 AAA
TAFAPG
TAF AMD
PAPG 211922Z 2119/2218 VRB03KT P6SM VCFG FEW003 BKN100
     FM212100 07003KT P6SM SCT070 BKN100
     FM220600 15004KT P6SM -RA SCT030 BKN040 OVC100
      AMD LTD TO CLD VIS AND WIND 2206/2215=

USA.gov is the U.S. government's official web portal to all federal, state and local government web resources and services.